createdAt,value
2019-03-24T00:00:53.717Z,19.55
2019-03-24T00:02:02.158Z,19.23
2019-03-24T00:03:08.551Z,20.88
2019-03-24T00:04:17.855Z,19.87
2019-03-24T00:05:25.418Z,19.70
2019-03-24T00:06:31.948Z,20.27
2019-03-24T00:07:39.433Z,18.85
2019-03-24T00:08:46.611Z,18.45
2019-03-24T00:09:53.421Z,19.50
2019-03-24T00:11:02.798Z,19.27
2019-03-24T00:12:08.956Z,19.15
2019-03-24T00:13:17.036Z,19.12
2019-03-24T00:14:23.400Z,19.27
2019-03-24T00:15:50.219Z,20.08
2019-03-24T00:16:57.414Z,18.75
2019-03-24T00:18:05.929Z,18.95
2019-03-24T00:19:11.979Z,18.75
2019-03-24T00:20:18.739Z,17.75
2019-03-24T00:21:25.921Z,19.00
2019-03-24T00:22:32.515Z,19.27
2019-03-24T00:23:39.489Z,18.85
2019-03-24T00:24:47.159Z,20.50
2019-03-24T00:25:53.419Z,19.23
2019-03-24T00:27:00.443Z,21.17
2019-03-24T00:28:07.505Z,20.17
2019-03-24T00:29:14.933Z,21.07
2019-03-24T00:30:23.275Z,21.02
2019-03-24T00:31:30.065Z,23.25
2019-03-24T00:32:36.295Z,21.48
2019-03-24T00:33:44.296Z,20.48
2019-03-24T00:34:51.084Z,22.22
2019-03-24T00:35:57.066Z,23.70
2019-03-24T00:37:04.936Z,21.52
2019-03-24T00:38:11.452Z,22.67
2019-03-24T00:39:19.546Z,22.27
2019-03-24T00:40:26.432Z,22.77
2019-03-24T00:41:33.434Z,23.83
2019-03-24T00:42:39.743Z,22.50
2019-03-24T00:43:46.698Z,22.73
2019-03-24T00:44:53.747Z,24.37
2019-03-24T00:45:59.912Z,23.18
2019-03-24T00:47:06.642Z,22.10
2019-03-24T00:48:14.592Z,22.75
2019-03-24T00:49:20.969Z,23.22
2019-03-24T00:50:27.951Z,20.97
2019-03-24T00:51:35.241Z,21.40
2019-03-24T00:52:41.992Z,19.87
2019-03-24T00:53:48.992Z,20.92
2019-03-24T00:54:55.882Z,21.27
2019-03-24T00:56:02.762Z,19.70
2019-03-24T00:57:09.882Z,19.48
2019-03-24T00:58:18.133Z,20.23
2019-03-24T00:59:25.332Z,19.17
2019-03-24T01:00:46.934Z,19.02
2019-03-24T01:01:52.977Z,19.95
2019-03-24T01:02:59.422Z,20.82
2019-03-24T01:04:05.822Z,20.82
2019-03-24T01:05:11.842Z,19.82
2019-03-24T01:06:18.129Z,21.17
2019-03-24T01:07:25.322Z,21.70
2019-03-24T01:08:32.049Z,19.87
2019-03-24T01:09:39.132Z,22.15
2019-03-24T01:10:46.362Z,21.27
2019-03-24T01:11:53.446Z,21.02
2019-03-24T01:13:00.032Z,19.67
2019-03-24T01:14:06.744Z,20.60
2019-03-24T01:15:13.784Z,18.62
2019-03-24T01:16:21.701Z,19.52
2019-03-24T01:17:28.161Z,19.50
2019-03-24T01:18:34.207Z,20.32
2019-03-24T01:19:40.803Z,19.67
2019-03-24T01:20:47.953Z,20.80
2019-03-24T01:21:54.183Z,18.07
2019-03-24T01:23:01.073Z,18.25
2019-03-24T01:24:09.099Z,18.73
2019-03-24T01:25:15.543Z,19.42
2019-03-24T01:26:22.287Z,20.92
2019-03-24T01:27:28.821Z,18.45
2019-03-24T01:28:35.290Z,19.25
2019-03-24T01:29:42.395Z,21.07
2019-03-24T01:30:49.020Z,18.85
2019-03-24T01:31:55.008Z,20.50
2019-03-24T01:33:03.070Z,18.85
2019-03-24T01:34:09.840Z,20.80
2019-03-24T01:35:16.737Z,21.52
2019-03-24T01:36:23.169Z,20.82
2019-03-24T01:37:29.970Z,28.90
2019-03-24T01:38:37.057Z,47.00
2019-03-24T01:39:43.999Z,50.78
2019-03-24T01:40:52.480Z,26.12
2019-03-24T01:42:19.950Z,21.93
2019-03-24T01:43:26.449Z,18.60
2019-03-24T01:44:33.347Z,18.48
2019-03-24T01:45:40.007Z,18.92
2019-03-24T01:46:46.860Z,19.12
2019-03-24T01:47:53.830Z,18.00
2019-03-24T01:48:59.930Z,17.15
2019-03-24T01:50:07.839Z,18.82
2019-03-24T01:51:15.140Z,18.90
2019-03-24T01:52:21.021Z,17.75
2019-03-24T01:53:27.334Z,18.30
2019-03-24T01:54:34.060Z,17.57
2019-03-24T01:55:40.210Z,19.23
2019-03-24T01:56:47.091Z,17.95
2019-03-24T01:57:54.061Z,18.70
2019-03-24T01:59:00.168Z,17.12
2019-03-24T02:00:10.080Z,16.95
2019-03-24T02:01:16.910Z,16.55
2019-03-24T02:02:24.060Z,17.48
2019-03-24T02:03:31.571Z,17.57
2019-03-24T02:04:38.611Z,16.20
2019-03-24T02:05:45.036Z,16.65
2019-03-24T02:06:51.187Z,15.32
2019-03-24T02:07:59.807Z,18.70
2019-03-24T02:09:07.900Z,19.85
2019-03-24T02:10:15.221Z,16.02
2019-03-24T02:11:21.699Z,15.40
2019-03-24T02:12:28.209Z,15.85
2019-03-24T02:13:35.540Z,15.88
2019-03-24T02:14:43.398Z,15.20
2019-03-24T02:15:50.301Z,16.45
2019-03-24T02:16:59.216Z,15.85
2019-03-24T02:18:05.560Z,16.75
2019-03-24T02:19:12.721Z,17.32
2019-03-24T02:20:19.451Z,16.90
2019-03-24T02:21:25.456Z,15.93
2019-03-24T02:22:32.591Z,17.10
2019-03-24T02:23:39.550Z,15.90
2019-03-24T02:24:45.481Z,15.55
2019-03-24T02:25:52.091Z,15.58
2019-03-24T02:26:59.343Z,14.13
2019-03-24T02:28:06.389Z,14.50
2019-03-24T02:29:13.638Z,14.85
2019-03-24T02:30:20.494Z,15.00
2019-03-24T02:31:27.051Z,14.93
2019-03-24T02:32:34.015Z,15.20
2019-03-24T02:33:41.597Z,15.15
2019-03-24T02:34:49.500Z,14.00
2019-03-24T02:35:56.949Z,13.62
2019-03-24T02:37:03.971Z,14.85
2019-03-24T02:38:10.052Z,14.40
2019-03-24T02:39:16.856Z,13.40
2019-03-24T02:40:24.343Z,12.75
2019-03-24T02:41:30.811Z,15.23
2019-03-24T02:42:38.352Z,15.10
2019-03-24T02:43:44.973Z,15.23
2019-03-24T02:44:51.292Z,17.52
2019-03-24T02:45:58.854Z,13.62
2019-03-24T02:47:05.462Z,12.58
2019-03-24T02:48:12.869Z,13.13
2019-03-24T02:49:19.912Z,12.28
2019-03-24T02:50:26.814Z,13.22
2019-03-24T02:51:33.462Z,12.07
2019-03-24T02:52:39.983Z,13.75
2019-03-24T02:53:46.252Z,12.73
2019-03-24T02:54:53.041Z,12.28
2019-03-24T02:55:59.903Z,11.90
2019-03-24T02:57:07.105Z,12.47
2019-03-24T02:58:14.603Z,12.35
2019-03-24T02:59:21.862Z,11.15
2019-03-24T03:00:28.222Z,12.95
2019-03-24T03:01:35.357Z,13.38
2019-03-24T03:02:42.303Z,13.10
2019-03-24T03:03:49.542Z,11.15
2019-03-24T03:04:55.589Z,11.10
2019-03-24T03:06:02.144Z,9.85
2019-03-24T03:07:08.573Z,10.82
2019-03-24T03:08:35.682Z,9.90
2019-03-24T03:09:42.904Z,10.72
2019-03-24T03:10:50.512Z,11.15
2019-03-24T03:11:56.645Z,11.43
2019-03-24T03:13:02.941Z,9.70
2019-03-24T03:14:09.784Z,11.05
2019-03-24T03:15:15.951Z,11.85
2019-03-24T03:16:22.733Z,11.68
2019-03-24T03:17:30.152Z,9.75
2019-03-24T03:18:37.014Z,9.58
2019-03-24T03:19:43.141Z,9.45
2019-03-24T03:20:49.953Z,9.28
2019-03-24T03:21:56.794Z,10.23
2019-03-24T03:23:04.104Z,9.80
2019-03-24T03:24:10.557Z,9.95
2019-03-24T03:25:17.284Z,10.65
2019-03-24T03:26:24.214Z,10.03
2019-03-24T03:27:31.040Z,10.05
2019-03-24T03:28:37.172Z,10.32
2019-03-24T03:29:45.603Z,9.58
2019-03-24T03:30:52.718Z,10.70
2019-03-24T03:31:59.125Z,17.07
2019-03-24T03:33:05.718Z,11.10
2019-03-24T03:34:12.761Z,9.63
2019-03-24T03:35:18.694Z,10.32
2019-03-24T03:36:25.574Z,10.08
2019-03-24T03:37:32.275Z,10.08
2019-03-24T03:38:39.125Z,12.53
2019-03-24T03:39:45.436Z,11.85
2019-03-24T03:40:52.669Z,10.50
2019-03-24T03:41:59.227Z,11.22
2019-03-24T03:43:06.030Z,11.55
2019-03-24T03:44:12.767Z,10.48
2019-03-24T03:45:27.877Z,9.65
2019-03-24T03:46:34.722Z,9.45
2019-03-24T03:47:41.707Z,8.98
2019-03-24T03:48:47.847Z,9.55
2019-03-24T03:49:54.350Z,11.00
2019-03-24T03:51:01.467Z,11.95
2019-03-24T03:52:07.849Z,14.00
2019-03-24T03:53:14.026Z,36.98
2019-03-24T03:54:21.969Z,59.88
2019-03-24T03:55:28.764Z,56.60
2019-03-24T03:56:35.112Z,89.72
2019-03-24T03:57:41.997Z,82.15
2019-03-24T03:58:48.017Z,39.85
2019-03-24T03:59:54.592Z,21.87
2019-03-24T04:01:22.169Z,9.13
2019-03-24T04:02:28.228Z,10.48
2019-03-24T04:03:35.242Z,8.70
2019-03-24T04:04:41.846Z,10.15
2019-03-24T04:05:47.857Z,9.28
2019-03-24T04:06:54.546Z,17.48
2019-03-24T04:08:02.518Z,14.45
2019-03-24T04:09:08.404Z,12.18
2019-03-24T04:10:14.965Z,21.33
2019-03-24T04:11:21.576Z,34.92
2019-03-24T04:12:27.743Z,35.00
2019-03-24T04:13:34.871Z,34.05
2019-03-24T04:14:42.307Z,41.15
2019-03-24T04:15:49.082Z,38.35
2019-03-24T04:17:06.870Z,42.33
2019-03-24T04:18:05.989Z,39.05
2019-03-24T04:19:11.848Z,33.10
2019-03-24T04:20:18.566Z,27.02
2019-03-24T04:21:26.427Z,18.87
2019-03-24T04:22:32.607Z,13.35
2019-03-24T04:23:39.439Z,13.88
2019-03-24T04:24:46.357Z,13.13
2019-03-24T04:25:52.433Z,11.48
2019-03-24T04:26:59.016Z,16.37
2019-03-24T04:28:05.973Z,15.80
2019-03-24T04:29:14.157Z,12.43
2019-03-24T04:30:20.673Z,11.80
2019-03-24T04:31:28.547Z,17.95
2019-03-24T04:32:34.881Z,17.67
2019-03-24T04:33:42.482Z,20.43
2019-03-24T04:34:50.972Z,19.30
2019-03-24T04:35:56.921Z,13.15
2019-03-24T04:37:03.341Z,12.88
2019-03-24T04:38:10.097Z,11.73
2019-03-24T04:39:16.917Z,9.03
2019-03-24T04:40:24.497Z,8.75
2019-03-24T04:41:31.397Z,7.75
2019-03-24T04:42:37.730Z,8.83
2019-03-24T04:43:44.731Z,8.15
2019-03-24T04:44:51.916Z,10.00
2019-03-24T04:45:58.036Z,9.68
2019-03-24T04:47:16.184Z,10.03
2019-03-24T04:48:15.228Z,12.47
2019-03-24T04:49:21.485Z,13.95
2019-03-24T04:50:27.758Z,13.32
2019-03-24T04:51:34.757Z,10.25
2019-03-24T04:52:41.205Z,9.48
2019-03-24T04:53:48.119Z,10.18
2019-03-24T04:54:54.949Z,8.15
2019-03-24T04:56:00.827Z,8.70
2019-03-24T04:57:07.676Z,9.08
2019-03-24T04:58:14.537Z,8.95
2019-03-24T04:59:22.087Z,8.55
2019-03-24T05:00:38.317Z,9.38
2019-03-24T05:01:45.620Z,9.13
2019-03-24T05:02:51.416Z,11.10
2019-03-24T05:03:58.307Z,13.65
2019-03-24T05:05:06.526Z,11.55
2019-03-24T05:06:12.727Z,10.53
2019-03-24T05:07:19.759Z,10.25
2019-03-24T05:08:26.629Z,9.88
2019-03-24T05:09:32.718Z,8.58
2019-03-24T05:10:40.276Z,9.58
2019-03-24T05:11:46.707Z,8.45
2019-03-24T05:12:53.257Z,8.08
2019-03-24T05:14:00.037Z,7.22
2019-03-24T05:15:06.955Z,7.65
2019-03-24T05:16:13.787Z,6.95
2019-03-24T05:17:26.919Z,7.80
2019-03-24T05:18:29.067Z,7.72
2019-03-24T05:19:35.627Z,7.87
2019-03-24T05:20:43.487Z,7.62
2019-03-24T05:21:50.084Z,8.63
2019-03-24T05:22:56.807Z,7.70
2019-03-24T05:24:03.724Z,7.58
2019-03-24T05:25:09.928Z,9.18
2019-03-24T05:26:17.166Z,8.80
2019-03-24T05:27:24.508Z,8.25
2019-03-24T05:28:30.839Z,8.35
2019-03-24T05:29:37.798Z,8.35
2019-03-24T05:30:44.908Z,7.92
2019-03-24T05:31:50.907Z,8.18
2019-03-24T05:32:57.319Z,7.92
2019-03-24T05:34:04.231Z,8.68
2019-03-24T05:35:10.067Z,8.63
2019-03-24T05:36:16.378Z,8.20
2019-03-24T05:37:23.569Z,9.43
2019-03-24T05:38:29.908Z,8.85
2019-03-24T05:39:36.825Z,8.43
2019-03-24T05:40:43.445Z,9.13
2019-03-24T05:41:50.568Z,9.25
2019-03-24T05:42:57.319Z,8.53
2019-03-24T05:44:04.576Z,9.98
2019-03-24T05:45:10.759Z,9.25
2019-03-24T05:46:17.228Z,9.80
2019-03-24T05:47:23.985Z,9.58
2019-03-24T05:48:32.792Z,9.83
2019-03-24T05:49:40.741Z,7.97
2019-03-24T05:50:47.929Z,9.38
2019-03-24T05:51:54.398Z,8.85
2019-03-24T05:53:01.199Z,8.28
2019-03-24T05:54:08.356Z,8.73
2019-03-24T05:55:15.438Z,9.03
2019-03-24T05:56:22.838Z,8.65
2019-03-24T05:57:29.856Z,8.65
2019-03-24T05:58:36.909Z,9.78
2019-03-24T05:59:43.545Z,9.38
2019-03-24T06:00:51.469Z,8.40
2019-03-24T06:01:58.498Z,9.18
2019-03-24T06:03:05.149Z,10.13
2019-03-24T06:04:12.438Z,9.03
2019-03-24T06:05:19.309Z,9.27
2019-03-24T06:06:26.328Z,10.13
2019-03-24T06:07:33.669Z,8.73
2019-03-24T06:08:40.089Z,9.80
2019-03-24T06:09:47.696Z,8.87
2019-03-24T06:10:54.119Z,8.33
2019-03-24T06:12:00.309Z,7.83
2019-03-24T06:13:06.936Z,6.50
2019-03-24T06:14:14.593Z,6.37
2019-03-24T06:15:20.489Z,7.73
2019-03-24T06:16:26.910Z,8.93
2019-03-24T06:17:33.602Z,8.60
2019-03-24T06:18:40.469Z,7.70
2019-03-24T06:19:47.230Z,7.37
2019-03-24T06:20:53.759Z,10.07
2019-03-24T06:22:00.629Z,8.23
2019-03-24T06:23:07.589Z,7.83
2019-03-24T06:24:15.419Z,8.43
2019-03-24T06:25:21.585Z,8.70
2019-03-24T06:26:28.349Z,8.03
2019-03-24T06:27:34.957Z,8.80
2019-03-24T06:28:41.260Z,8.03
2019-03-24T06:29:48.009Z,7.87
2019-03-24T06:30:54.720Z,8.10
2019-03-24T06:32:00.840Z,7.80
2019-03-24T06:33:08.710Z,8.87
2019-03-24T06:34:15.641Z,8.17
2019-03-24T06:35:23.119Z,8.43
2019-03-24T06:36:31.321Z,7.73
2019-03-24T06:37:38.156Z,8.07
2019-03-24T06:38:44.634Z,9.23
2019-03-24T06:39:51.349Z,10.10
2019-03-24T06:40:58.440Z,8.40
2019-03-24T06:42:05.134Z,7.00
2019-03-24T06:43:11.550Z,7.67
2019-03-24T06:44:18.171Z,8.30
2019-03-24T06:45:28.719Z,7.77
2019-03-24T06:46:36.267Z,8.67
2019-03-24T06:47:45.200Z,9.10
2019-03-24T06:48:51.480Z,8.20
2019-03-24T06:49:57.997Z,6.87
2019-03-24T06:51:04.830Z,6.80
2019-03-24T06:52:11.393Z,8.10
2019-03-24T06:53:18.358Z,7.03
2019-03-24T06:54:24.882Z,6.93
2019-03-24T06:55:31.216Z,7.60
2019-03-24T06:56:37.239Z,6.93
2019-03-24T06:57:43.919Z,8.40
2019-03-24T06:58:49.769Z,7.67
2019-03-24T06:59:56.558Z,7.57
2019-03-24T07:01:03.905Z,7.50
2019-03-24T07:02:10.391Z,6.63
2019-03-24T07:03:17.223Z,6.50
2019-03-24T07:04:24.254Z,7.03
2019-03-24T07:05:30.391Z,6.90
2019-03-24T07:06:38.217Z,6.37
2019-03-24T07:07:44.932Z,6.10
2019-03-24T07:08:51.023Z,6.93
2019-03-24T07:09:57.664Z,6.60
2019-03-24T07:11:08.488Z,6.73
2019-03-24T07:12:12.121Z,6.80
2019-03-24T07:13:19.344Z,7.50
2019-03-24T07:14:26.336Z,15.37
2019-03-24T07:15:32.754Z,25.57
2019-03-24T07:16:39.191Z,13.77
2019-03-24T07:17:45.911Z,14.27
2019-03-24T07:18:51.834Z,10.37
2019-03-24T07:19:58.381Z,15.23
2019-03-24T07:21:06.205Z,9.60
2019-03-24T07:22:12.534Z,6.77
2019-03-24T07:23:19.304Z,8.30
2019-03-24T07:24:28.062Z,11.37
2019-03-24T07:25:34.390Z,8.70
2019-03-24T07:26:41.283Z,8.80
2019-03-24T07:27:49.553Z,6.87
2019-03-24T07:28:56.471Z,7.47
2019-03-24T07:30:04.311Z,5.80
2019-03-24T07:31:10.656Z,5.57
2019-03-24T07:32:17.574Z,7.63
2019-03-24T07:33:24.032Z,10.43
2019-03-24T07:34:30.702Z,12.93
2019-03-24T07:35:37.704Z,6.97
2019-03-24T07:36:44.535Z,10.53
2019-03-24T07:37:51.195Z,6.63
2019-03-24T07:38:57.516Z,6.43
2019-03-24T07:40:04.492Z,6.33
2019-03-24T07:41:11.875Z,6.20
2019-03-24T07:42:19.122Z,6.60
2019-03-24T07:43:25.842Z,5.67
2019-03-24T07:44:34.055Z,5.93
2019-03-24T07:45:42.952Z,6.37
2019-03-24T07:46:49.285Z,5.20
2019-03-24T07:47:56.432Z,10.33
2019-03-24T07:49:06.762Z,6.10
2019-03-24T07:50:13.677Z,5.67
2019-03-24T07:51:20.175Z,5.47
2019-03-24T07:52:27.205Z,7.07
2019-03-24T07:53:33.422Z,7.17
2019-03-24T07:54:41.986Z,6.10
2019-03-24T07:55:49.585Z,6.27
2019-03-24T07:56:55.603Z,6.17
2019-03-24T07:58:02.442Z,5.80
2019-03-24T07:59:10.846Z,6.07
2019-03-24T08:00:21.846Z,5.87
2019-03-24T08:01:30.016Z,6.37
2019-03-24T08:02:36.873Z,6.27
2019-03-24T08:03:44.411Z,7.13
2019-03-24T08:04:51.187Z,5.87
2019-03-24T08:06:18.784Z,6.03
2019-03-24T08:07:25.435Z,5.33
2019-03-24T08:08:32.193Z,5.00
2019-03-24T08:09:39.512Z,5.33
2019-03-24T08:10:45.513Z,5.47
2019-03-24T08:11:54.204Z,5.63
2019-03-24T08:13:00.893Z,6.77
2019-03-24T08:14:07.136Z,9.70
2019-03-24T08:15:17.032Z,12.30
2019-03-24T08:16:25.615Z,6.23
2019-03-24T08:17:32.426Z,5.20
2019-03-24T08:18:39.634Z,5.90
2019-03-24T08:19:46.952Z,6.00
2019-03-24T08:20:53.772Z,7.67
2019-03-24T08:21:59.670Z,5.13
2019-03-24T08:23:05.614Z,6.73
2019-03-24T08:24:12.154Z,6.60
2019-03-24T08:25:19.241Z,5.67
2019-03-24T08:26:26.373Z,5.57
2019-03-24T08:27:33.143Z,9.83
2019-03-24T08:28:40.900Z,8.50
2019-03-24T08:29:47.393Z,5.40
2019-03-24T08:30:54.270Z,5.40
2019-03-24T08:32:01.073Z,7.20
2019-03-24T08:33:07.580Z,7.60
2019-03-24T08:34:14.221Z,7.70
2019-03-24T08:35:20.774Z,6.30
2019-03-24T08:36:27.334Z,5.70
2019-03-24T08:37:35.232Z,5.30
2019-03-24T08:38:41.586Z,6.00
2019-03-24T08:39:48.542Z,4.63
2019-03-24T08:40:55.013Z,5.33
2019-03-24T08:42:05.696Z,4.97
2019-03-24T08:43:12.036Z,5.77
2019-03-24T08:44:18.712Z,4.50
2019-03-24T08:45:32.110Z,4.73
2019-03-24T08:46:38.493Z,4.80
2019-03-24T08:47:45.352Z,5.53
2019-03-24T08:48:53.174Z,5.47
2019-03-24T08:49:59.946Z,6.67
2019-03-24T08:51:07.682Z,7.13
2019-03-24T08:52:14.715Z,8.17
2019-03-24T08:53:21.385Z,5.53
2019-03-24T08:54:27.826Z,6.20
2019-03-24T08:55:34.505Z,18.63
2019-03-24T08:56:41.648Z,16.70
2019-03-24T08:57:47.671Z,10.20
2019-03-24T08:58:54.473Z,7.13
2019-03-24T09:00:03.767Z,5.73
2019-03-24T09:01:09.473Z,5.50
2019-03-24T09:02:15.725Z,6.83
2019-03-24T09:03:24.496Z,5.30
2019-03-24T09:04:32.148Z,7.83
2019-03-24T09:05:38.515Z,5.57
2019-03-24T09:06:46.091Z,5.37
2019-03-24T09:07:53.088Z,4.33
2019-03-24T09:09:00.394Z,4.27
2019-03-24T09:10:09.153Z,5.70
2019-03-24T09:11:30.860Z,5.53
2019-03-24T09:12:31.221Z,7.67
2019-03-24T09:13:37.788Z,9.20
2019-03-24T09:14:44.734Z,7.07
2019-03-24T09:15:52.154Z,4.90
2019-03-24T09:16:58.172Z,4.97
2019-03-24T09:18:05.243Z,8.40
2019-03-24T09:19:14.122Z,9.03
2019-03-24T09:20:20.231Z,6.83
2019-03-24T09:21:27.311Z,5.50
2019-03-24T09:22:33.997Z,6.37
2019-03-24T09:23:40.764Z,9.73
2019-03-24T09:24:48.665Z,5.90
2019-03-24T09:25:55.455Z,4.27
2019-03-24T09:27:02.043Z,10.53
2019-03-24T09:28:09.328Z,14.13
2019-03-24T09:29:15.774Z,9.43
2019-03-24T09:30:34.744Z,5.73
2019-03-24T09:31:41.003Z,8.80
2019-03-24T09:32:48.394Z,9.60
2019-03-24T09:34:02.237Z,8.90
2019-03-24T09:35:09.013Z,6.30
2019-03-24T09:36:16.914Z,5.10
2019-03-24T09:37:23.593Z,4.40
2019-03-24T09:38:30.573Z,4.63
2019-03-24T09:39:37.473Z,6.63
2019-03-24T09:40:43.554Z,5.27
2019-03-24T09:41:49.973Z,5.90
2019-03-24T09:44:20.876Z,6.73
2019-03-24T09:45:27.533Z,4.30
2019-03-24T09:46:35.333Z,3.90
2019-03-24T09:47:45.343Z,5.00
2019-03-24T09:49:02.455Z,5.53
2019-03-24T09:50:00.533Z,6.50
2019-03-24T09:51:06.643Z,8.27
2019-03-24T09:52:14.893Z,8.37
2019-03-24T09:53:21.015Z,5.27
2019-03-24T09:54:27.346Z,6.33
2019-03-24T09:55:34.903Z,5.27
2019-03-24T09:56:42.158Z,6.13
2019-03-24T09:57:49.238Z,6.73
2019-03-24T09:58:57.847Z,4.90
2019-03-24T10:00:05.018Z,4.57
2019-03-24T10:01:11.256Z,3.97
2019-03-24T10:02:17.895Z,4.00
2019-03-24T10:03:25.424Z,4.67
2019-03-24T10:04:31.734Z,4.03
2019-03-24T10:05:40.016Z,8.53
2019-03-24T10:06:47.054Z,13.00
2019-03-24T10:07:52.966Z,9.30
2019-03-24T10:09:00.984Z,10.23
2019-03-24T10:10:09.633Z,12.03
2019-03-24T10:11:16.576Z,5.80
2019-03-24T10:12:23.976Z,10.17
2019-03-24T10:13:30.746Z,5.50
2019-03-24T10:14:36.716Z,6.87
2019-03-24T10:15:43.746Z,5.40
2019-03-24T10:16:50.888Z,11.10
2019-03-24T10:17:56.924Z,16.80
2019-03-24T10:19:13.271Z,18.97
2019-03-24T10:20:11.563Z,26.03
2019-03-24T10:21:17.816Z,5.03
2019-03-24T10:22:26.059Z,5.67
2019-03-24T10:23:34.228Z,6.43
2019-03-24T10:24:40.713Z,5.77
2019-03-24T10:25:46.717Z,5.10
2019-03-24T10:26:52.606Z,7.00
2019-03-24T10:27:58.890Z,6.07
2019-03-24T10:29:05.947Z,4.10
2019-03-24T10:30:12.427Z,4.83
2019-03-24T10:31:18.524Z,4.70
2019-03-24T10:32:24.545Z,6.30
2019-03-24T10:33:30.646Z,6.03
2019-03-24T10:34:36.548Z,4.43
2019-03-24T10:35:43.284Z,5.43
2019-03-24T10:36:50.055Z,6.50
2019-03-24T10:37:57.324Z,6.97
2019-03-24T10:39:06.004Z,5.83
2019-03-24T10:40:13.858Z,5.70
2019-03-24T10:41:20.095Z,4.97
2019-03-24T10:42:26.538Z,4.23
2019-03-24T10:43:32.874Z,4.93
2019-03-24T10:44:40.434Z,4.03
2019-03-24T10:45:47.345Z,5.90
2019-03-24T10:46:53.944Z,7.03
2019-03-24T10:48:02.338Z,8.23
2019-03-24T10:49:08.935Z,6.97
2019-03-24T10:50:16.634Z,10.47
2019-03-24T10:51:23.794Z,7.07
2019-03-24T10:52:30.108Z,7.53
2019-03-24T10:53:36.795Z,6.23
2019-03-24T10:54:43.518Z,6.73
2019-03-24T10:55:50.164Z,4.90
2019-03-24T10:56:58.275Z,4.77
2019-03-24T10:58:04.714Z,3.90
2019-03-24T10:59:11.744Z,5.80
2019-03-24T11:00:23.958Z,5.57
2019-03-24T11:01:31.736Z,4.77
2019-03-24T11:02:39.245Z,6.30
2019-03-24T11:03:45.868Z,4.70
2019-03-24T11:04:52.337Z,4.33
2019-03-24T11:05:59.830Z,4.80
2019-03-24T11:07:06.416Z,6.83
2019-03-24T11:08:13.474Z,7.13
2019-03-24T11:09:22.477Z,6.57
2019-03-24T11:10:29.658Z,5.37
2019-03-24T11:11:35.717Z,4.43
2019-03-24T11:12:42.423Z,4.50
2019-03-24T11:13:49.419Z,8.20
2019-03-24T11:14:56.058Z,9.13
2019-03-24T11:16:03.278Z,12.63
2019-03-24T11:17:10.600Z,7.07
2019-03-24T11:18:17.051Z,5.77
2019-03-24T11:19:35.035Z,5.17
2019-03-24T11:20:35.780Z,4.97
2019-03-24T11:21:42.263Z,11.20
2019-03-24T11:22:48.800Z,8.40
2019-03-24T11:23:55.840Z,9.80
2019-03-24T11:25:02.093Z,10.60
2019-03-24T11:26:09.000Z,9.20
2019-03-24T11:27:15.473Z,8.60
2019-03-24T11:28:21.483Z,6.90
2019-03-24T11:29:27.584Z,5.43
2019-03-24T11:30:34.023Z,6.73
2019-03-24T11:31:40.153Z,5.00
2019-03-24T11:32:48.193Z,5.30
2019-03-24T11:33:55.161Z,4.93
2019-03-24T11:35:02.122Z,5.00
2019-03-24T11:36:10.213Z,3.90
2019-03-24T11:37:17.312Z,3.73
2019-03-24T11:38:24.561Z,4.30
2019-03-24T11:39:32.800Z,3.50
2019-03-24T11:40:59.983Z,3.33
2019-03-24T11:42:07.214Z,4.53
2019-03-24T11:43:13.298Z,4.90
2019-03-24T11:44:20.229Z,3.63
2019-03-24T11:45:29.341Z,4.67
2019-03-24T11:46:35.862Z,4.10
2019-03-24T11:47:42.358Z,4.33
2019-03-24T11:48:50.069Z,5.27
2019-03-24T11:49:57.278Z,3.87
2019-03-24T11:51:03.241Z,5.13
2019-03-24T11:52:09.460Z,5.77
2019-03-24T11:53:16.218Z,4.07
2019-03-24T11:54:25.315Z,4.83
2019-03-24T11:55:32.510Z,6.87
2019-03-24T11:56:39.149Z,9.07
2019-03-24T11:57:45.559Z,5.67
2019-03-24T11:58:52.302Z,6.00
2019-03-24T11:59:58.989Z,4.40
2019-03-24T12:01:05.223Z,3.43
2019-03-24T12:02:14.291Z,5.60
2019-03-24T12:03:21.671Z,5.37
2019-03-24T12:04:29.562Z,5.10
2019-03-24T12:05:37.916Z,8.07
2019-03-24T12:06:45.111Z,7.40
2019-03-24T12:07:51.481Z,7.17
2019-03-24T12:08:59.674Z,9.03
2019-03-24T12:10:28.331Z,10.00
2019-03-24T12:11:35.065Z,8.63
2019-03-24T12:13:02.721Z,10.77
2019-03-24T12:14:10.583Z,8.10
2019-03-24T12:15:17.804Z,8.13
2019-03-24T12:16:25.442Z,12.70
2019-03-24T12:17:33.761Z,11.10
2019-03-24T12:18:40.914Z,10.73
2019-03-24T12:19:56.422Z,8.63
2019-03-24T12:20:56.084Z,6.50
2019-03-24T12:22:03.894Z,8.67
2019-03-24T12:23:10.914Z,5.80
2019-03-24T12:24:18.801Z,5.10
2019-03-24T12:25:26.692Z,5.13
2019-03-24T12:26:33.761Z,4.77
2019-03-24T12:27:40.681Z,5.10
2019-03-24T12:28:47.312Z,7.47
2019-03-24T12:29:54.597Z,5.87
2019-03-24T12:31:02.814Z,8.73
2019-03-24T12:32:10.542Z,3.63
2019-03-24T12:33:17.431Z,4.87
2019-03-24T12:34:24.522Z,4.70
2019-03-24T12:35:30.715Z,4.57
2019-03-24T12:36:37.561Z,3.73
2019-03-24T12:37:44.901Z,4.20
2019-03-24T12:38:51.184Z,11.00
2019-03-24T12:39:59.812Z,7.67
2019-03-24T12:41:07.402Z,5.40
2019-03-24T12:42:15.299Z,4.70
2019-03-24T12:43:22.602Z,8.63
2019-03-24T12:44:29.307Z,8.50
2019-03-24T12:45:35.632Z,4.40
2019-03-24T12:46:44.275Z,6.03
2019-03-24T12:47:52.032Z,6.80
2019-03-24T12:48:58.412Z,4.37
2019-03-24T12:50:09.966Z,4.43
2019-03-24T12:51:17.004Z,6.97
2019-03-24T12:52:23.356Z,6.57
2019-03-24T12:53:29.963Z,6.43
2019-03-24T12:54:36.931Z,4.30
2019-03-24T12:55:44.634Z,8.03
2019-03-24T12:56:51.562Z,6.83
2019-03-24T12:57:58.763Z,6.53
2019-03-24T12:59:05.004Z,5.17
2019-03-24T13:00:14.076Z,5.87
2019-03-24T13:01:21.649Z,6.13
2019-03-24T13:02:29.125Z,5.33
2019-03-24T13:03:35.965Z,6.37
2019-03-24T13:04:42.922Z,4.40
2019-03-24T13:05:49.993Z,4.97
2019-03-24T13:06:57.621Z,5.10
2019-03-24T13:08:18.293Z,6.63
2019-03-24T13:09:24.660Z,8.33
2019-03-24T13:10:31.836Z,5.17
2019-03-24T13:11:38.077Z,5.07
2019-03-24T13:12:45.173Z,4.53
2019-03-24T13:13:52.325Z,3.90
2019-03-24T13:14:58.645Z,4.20
2019-03-24T13:16:06.064Z,4.60
2019-03-24T13:17:15.253Z,4.47
2019-03-24T13:18:21.642Z,5.07
2019-03-24T13:19:28.368Z,5.60
2019-03-24T13:20:38.754Z,5.40
2019-03-24T13:21:47.117Z,7.50
2019-03-24T13:22:54.192Z,6.20
2019-03-24T13:24:01.690Z,11.67
2019-03-24T13:25:08.702Z,9.40
2019-03-24T13:26:15.408Z,5.97
2019-03-24T13:27:22.340Z,30.30
2019-03-24T13:28:28.460Z,8.23
2019-03-24T13:29:35.473Z,4.53
2019-03-24T13:30:43.575Z,3.07
2019-03-24T13:31:49.745Z,6.70
2019-03-24T13:32:56.813Z,3.90
2019-03-24T13:34:04.283Z,3.30
2019-03-24T13:35:10.916Z,3.20
2019-03-24T13:36:17.993Z,4.10
2019-03-24T13:37:25.123Z,4.20
2019-03-24T13:38:31.686Z,3.93
2019-03-24T13:39:38.844Z,3.23
2019-03-24T13:40:46.266Z,3.40
2019-03-24T13:41:52.618Z,6.30
2019-03-24T13:43:00.111Z,4.83
2019-03-24T13:44:07.175Z,4.93
2019-03-24T13:45:13.685Z,4.10
2019-03-24T13:46:21.274Z,5.20
2019-03-24T13:47:28.204Z,5.23
2019-03-24T13:48:34.833Z,5.07
2019-03-24T13:49:42.213Z,3.73
2019-03-24T13:50:49.763Z,4.77
2019-03-24T13:51:56.338Z,3.47
2019-03-24T13:53:03.804Z,3.43
2019-03-24T13:54:11.493Z,3.17
2019-03-24T13:55:18.613Z,4.20
2019-03-24T13:56:25.565Z,5.30
2019-03-24T13:57:32.863Z,3.53
2019-03-24T13:58:39.893Z,4.00
2019-03-24T13:59:47.556Z,5.07
2019-03-24T14:00:54.643Z,3.83
2019-03-24T14:02:00.983Z,3.13
2019-03-24T14:03:07.856Z,4.23
2019-03-24T14:04:21.096Z,5.13
2019-03-24T14:05:27.576Z,3.53
2019-03-24T14:06:35.234Z,3.63
2019-03-24T14:07:42.367Z,3.47
2019-03-24T14:08:49.076Z,3.20
2019-03-24T14:09:55.556Z,6.43
2019-03-24T14:11:02.404Z,6.73
2019-03-24T14:12:08.856Z,5.07
2019-03-24T14:13:16.209Z,5.53
2019-03-24T14:14:23.247Z,9.50
2019-03-24T14:15:29.903Z,4.77
2019-03-24T14:16:36.563Z,4.87
2019-03-24T14:17:43.743Z,3.67
2019-03-24T14:18:52.144Z,3.90
2019-03-24T14:19:59.663Z,5.80
2019-03-24T14:21:08.387Z,6.93
2019-03-24T14:22:15.297Z,5.63
2019-03-24T14:23:22.204Z,6.00
2019-03-24T14:24:28.964Z,7.40
2019-03-24T14:25:35.583Z,5.80
2019-03-24T14:26:42.877Z,3.83
2019-03-24T14:27:50.457Z,4.17
2019-03-24T14:28:57.156Z,5.07
2019-03-24T14:30:04.466Z,6.27
2019-03-24T14:31:11.724Z,8.00
2019-03-24T14:32:18.121Z,10.30
2019-03-24T14:33:26.846Z,5.93
2019-03-24T14:34:34.174Z,4.57
2019-03-24T14:35:42.537Z,3.90
2019-03-24T14:36:49.647Z,5.87
2019-03-24T14:37:56.844Z,5.00
2019-03-24T14:39:04.477Z,6.93
2019-03-24T14:40:12.735Z,6.87
2019-03-24T14:41:20.194Z,8.47
2019-03-24T14:42:27.027Z,7.63
2019-03-24T14:43:34.503Z,7.97
2019-03-24T14:44:42.565Z,6.50
2019-03-24T14:45:49.186Z,5.10
2019-03-24T14:46:56.405Z,5.77
2019-03-24T14:48:03.987Z,7.27